Lyman, Washington
Current Conditions -  °F | °C
As of 1:15 PM on Saturday 22 Nov 2014 (Local Time) from KBVS Reporting Station
Overcast Overcast  
Wind Chill:   Ceiling: 2300
Heat Index:   Visibility: 10mi
Dew Point:   Wind: 6mph
Humidity: 87%   Direction: 190°S
Pressure: 29.84"   Gusts: NA
Location:  48.53°N, 122.06°W
Report Text: KBVS 222115Z AUTO 19005KT 10SM SCT017 BKN023 OVC028 09/07 A2984 RMK A01 P000
Loading
Personal Weather Stations






























Interactive Weather Map New forecast layout! Learn more

10-Day Weather Forecast

Advertisements
Track Severe Weather on mobile